sensor_id;sensor_type;location;lat;lon;timestamp;P1;durP1;ratioP1;P2;durP2;ratioP2
5391;SDS011;2719;53.624;9.786;2023-05-10T00:01:43;3.37;;;1.60;;
5391;SDS011;2719;53.624;9.786;2023-05-10T00:04:10;7.50;;;1.57;;
5391;SDS011;2719;53.624;9.786;2023-05-10T00:06:36;2.07;;;1.37;;
5391;SDS011;2719;53.624;9.786;2023-05-10T00:09:03;8.00;;;1.43;;
5391;SDS011;2719;53.624;9.786;2023-05-10T00:11:30;1.83;;;1.20;;
5391;SDS011;2719;53.624;9.786;2023-05-10T00:13:58;1.30;;;1.20;;
5391;SDS011;2719;53.624;9.786;2023-05-10T00:16:24;3.83;;;1.93;;
5391;SDS011;2719;53.624;9.786;2023-05-10T00:18:51;6.80;;;1.40;;
5391;SDS011;2719;53.624;9.786;2023-05-10T00:21:18;1.43;;;1.33;;
5391;SDS011;2719;53.624;9.786;2023-05-10T00:23:44;1.53;;;1.10;;
5391;SDS011;2719;53.624;9.786;2023-05-10T00:26:11;4.73;;;1.60;;
5391;SDS011;2719;53.624;9.786;2023-05-10T00:28:38;5.33;;;1.10;;
5391;SDS011;2719;53.624;9.786;2023-05-10T00:31:06;14.57;;;1.67;;
5391;SDS011;2719;53.624;9.786;2023-05-10T00:33:32;1.60;;;1.30;;
5391;SDS011;2719;53.624;9.786;2023-05-10T00:35:59;1.93;;;1.10;;
5391;SDS011;2719;53.624;9.786;2023-05-10T00:38:26;1.30;;;1.20;;
5391;SDS011;2719;53.624;9.786;2023-05-10T00:40:52;2.87;;;1.20;;
5391;SDS011;2719;53.624;9.786;2023-05-10T00:43:19;2.83;;;1.23;;
5391;SDS011;2719;53.624;9.786;2023-05-10T00:45:46;4.67;;;2.30;;
5391;SDS011;2719;53.624;9.786;2023-05-10T00:48:14;1.97;;;1.50;;
5391;SDS011;2719;53.624;9.786;2023-05-10T00:50:41;1.97;;;1.30;;
5391;SDS011;2719;53.624;9.786;2023-05-10T00:53:07;1.53;;;1.30;;
5391;SDS011;2719;53.624;9.786;2023-05-10T00:55:35;3.67;;;1.67;;
5391;SDS011;2719;53.624;9.786;2023-05-10T00:58:02;4.67;;;1.33;;
5391;SDS011;2719;53.624;9.786;2023-05-10T01:00:29;11.13;;;1.87;;
5391;SDS011;2719;53.624;9.786;2023-05-10T01:02:56;1.10;;;1.00;;
5391;SDS011;2719;53.624;9.786;2023-05-10T01:05:24;2.07;;;1.50;;
5391;SDS011;2719;53.624;9.786;2023-05-10T01:07:52;5.33;;;1.60;;
5391;SDS011;2719;53.624;9.786;2023-05-10T01:10:18;2.37;;;1.30;;
5391;SDS011;2719;53.624;9.786;2023-05-10T01:12:46;2.70;;;1.43;;
5391;SDS011;2719;53.624;9.786;2023-05-10T01:15:13;2.03;;;1.83;;
5391;SDS011;2719;53.624;9.786;2023-05-10T01:17:42;4.30;;;1.13;;
5391;SDS011;2719;53.624;9.786;2023-05-10T01:20:11;3.70;;;1.77;;
5391;SDS011;2719;53.624;9.786;2023-05-10T01:22:52;2.40;;;1.57;;
5391;SDS011;2719;53.624;9.786;2023-05-10T01:25:57;1.50;;;1.40;;
5391;SDS011;2719;53.624;9.786;2023-05-10T01:31:30;12.23;;;1.73;;
5391;SDS011;2719;53.624;9.786;2023-05-10T01:34:08;3.60;;;1.50;;
5391;SDS011;2719;53.624;9.786;2023-05-10T01:36:40;6.00;;;1.67;;
5391;SDS011;2719;53.624;9.786;2023-05-10T01:39:15;4.07;;;1.33;;
5391;SDS011;2719;53.624;9.786;2023-05-10T01:41:49;3.70;;;1.57;;
5391;SDS011;2719;53.624;9.786;2023-05-10T01:44:23;3.43;;;1.47;;
5391;SDS011;2719;53.624;9.786;2023-05-10T01:46:57;2.80;;;1.40;;
5391;SDS011;2719;53.624;9.786;2023-05-10T01:49:32;1.60;;;1.07;;
5391;SDS011;2719;53.624;9.786;2023-05-10T01:52:06;1.90;;;1.70;;
5391;SDS011;2719;53.624;9.786;2023-05-10T01:54:37;2.30;;;1.70;;
5391;SDS011;2719;53.624;9.786;2023-05-10T01:57:07;4.27;;;2.13;;
5391;SDS011;2719;53.624;9.786;2023-05-10T01:59:35;5.70;;;1.87;;
5391;SDS011;2719;53.624;9.786;2023-05-10T02:02:05;1.20;;;1.10;;
5391;SDS011;2719;53.624;9.786;2023-05-10T02:04:38;2.80;;;1.33;;
5391;SDS011;2719;53.624;9.786;2023-05-10T02:07:06;1.47;;;1.37;;
5391;SDS011;2719;53.624;9.786;2023-05-10T02:09:34;1.70;;;1.60;;
5391;SDS011;2719;53.624;9.786;2023-05-10T02:12:02;7.80;;;1.47;;
5391;SDS011;2719;53.624;9.786;2023-05-10T02:14:32;2.70;;;1.73;;
5391;SDS011;2719;53.624;9.786;2023-05-10T02:17:01;5.80;;;1.70;;
5391;SDS011;2719;53.624;9.786;2023-05-10T02:19:29;7.03;;;1.37;;
5391;SDS011;2719;53.624;9.786;2023-05-10T02:21:59;2.10;;;1.90;;
5391;SDS011;2719;53.624;9.786;2023-05-10T02:24:27;6.47;;;1.50;;
5391;SDS011;2719;53.624;9.786;2023-05-10T02:26:55;1.50;;;1.40;;
5391;SDS011;2719;53.624;9.786;2023-05-10T02:29:22;2.30;;;1.20;;
5391;SDS011;2719;53.624;9.786;2023-05-10T02:31:51;4.40;;;2.00;;
5391;SDS011;2719;53.624;9.786;2023-05-10T02:34:20;6.67;;;2.20;;
5391;SDS011;2719;53.624;9.786;2023-05-10T02:36:48;4.10;;;1.70;;
5391;SDS011;2719;53.624;9.786;2023-05-10T02:39:18;3.43;;;1.60;;
5391;SDS011;2719;53.624;9.786;2023-05-10T02:41:46;13.00;;;1.40;;
5391;SDS011;2719;53.624;9.786;2023-05-10T02:44:15;10.27;;;2.10;;
5391;SDS011;2719;53.624;9.786;2023-05-10T02:46:44;8.30;;;1.80;;
5391;SDS011;2719;53.624;9.786;2023-05-10T02:49:11;10.10;;;1.57;;
5391;SDS011;2719;53.624;9.786;2023-05-10T02:51:40;2.67;;;2.47;;
5391;SDS011;2719;53.624;9.786;2023-05-10T02:54:11;2.23;;;2.03;;
5391;SDS011;2719;53.624;9.786;2023-05-10T02:56:43;4.40;;;2.50;;
5391;SDS011;2719;53.624;9.786;2023-05-10T02:59:16;3.73;;;1.30;;
5391;SDS011;2719;53.624;9.786;2023-05-10T03:01:43;2.10;;;1.90;;
5391;SDS011;2719;53.624;9.786;2023-05-10T03:04:10;3.97;;;1.90;;
5391;SDS011;2719;53.624;9.786;2023-05-10T03:06:36;3.13;;;1.23;;
5391;SDS011;2719;53.624;9.786;2023-05-10T03:09:03;4.20;;;1.70;;
5391;SDS011;2719;53.624;9.786;2023-05-10T03:11:37;4.60;;;2.20;;
5391;SDS011;2719;53.624;9.786;2023-05-10T03:14:16;2.93;;;2.03;;
5391;SDS011;2719;53.624;9.786;2023-05-10T03:16:56;5.10;;;1.70;;
5391;SDS011;2719;53.624;9.786;2023-05-10T03:19:27;6.07;;;2.03;;
5391;SDS011;2719;53.624;9.786;2023-05-10T03:22:02;2.80;;;1.77;;
5391;SDS011;2719;53.624;9.786;2023-05-10T03:24:32;2.80;;;1.47;;
5391;SDS011;2719;53.624;9.786;2023-05-10T03:27:03;5.03;;;1.53;;
5391;SDS011;2719;53.624;9.786;2023-05-10T03:29:31;4.97;;;1.23;;
5391;SDS011;2719;53.624;9.786;2023-05-10T03:31:58;2.80;;;1.80;;
5391;SDS011;2719;53.624;9.786;2023-05-10T03:34:26;1.70;;;1.37;;
5391;SDS011;2719;53.624;9.786;2023-05-10T03:36:52;5.53;;;1.83;;
5391;SDS011;2719;53.624;9.786;2023-05-10T03:39:19;4.87;;;2.03;;
5391;SDS011;2719;53.624;9.786;2023-05-10T03:41:46;1.47;;;1.37;;
5391;SDS011;2719;53.624;9.786;2023-05-10T03:44:14;3.93;;;1.63;;
5391;SDS011;2719;53.624;9.786;2023-05-10T03:46:41;7.70;;;1.90;;
5391;SDS011;2719;53.624;9.786;2023-05-10T03:49:08;1.93;;;1.67;;
5391;SDS011;2719;53.624;9.786;2023-05-10T03:51:34;2.70;;;1.97;;
5391;SDS011;2719;53.624;9.786;2023-05-10T03:54:01;14.97;;;2.37;;
5391;SDS011;2719;53.624;9.786;2023-05-10T03:56:27;1.63;;;1.47;;
5391;SDS011;2719;53.624;9.786;2023-05-10T03:58:55;6.03;;;1.70;;
5391;SDS011;2719;53.624;9.786;2023-05-10T04:01:22;2.10;;;1.43;;
5391;SDS011;2719;53.624;9.786;2023-05-10T04:03:49;2.50;;;1.50;;
5391;SDS011;2719;53.624;9.786;2023-05-10T04:06:16;2.90;;;1.80;;
5391;SDS011;2719;53.624;9.786;2023-05-10T04:08:42;8.87;;;4.13;;
5391;SDS011;2719;53.624;9.786;2023-05-10T04:11:10;4.10;;;2.50;;
5391;SDS011;2719;53.624;9.786;2023-05-10T04:13:37;6.90;;;3.53;;
5391;SDS011;2719;53.624;9.786;2023-05-10T04:16:04;3.50;;;2.33;;
5391;SDS011;2719;53.624;9.786;2023-05-10T04:18:33;4.90;;;1.30;;
5391;SDS011;2719;53.624;9.786;2023-05-10T04:20:59;6.67;;;2.10;;
5391;SDS011;2719;53.624;9.786;2023-05-10T04:23:26;3.17;;;2.00;;
5391;SDS011;2719;53.624;9.786;2023-05-10T04:25:57;9.00;;;2.53;;
5391;SDS011;2719;53.624;9.786;2023-05-10T04:28:25;10.20;;;2.10;;
5391;SDS011;2719;53.624;9.786;2023-05-10T04:30:52;1.63;;;1.53;;
5391;SDS011;2719;53.624;9.786;2023-05-10T04:33:18;4.03;;;1.73;;
5391;SDS011;2719;53.624;9.786;2023-05-10T04:35:46;3.43;;;1.63;;
5391;SDS011;2719;53.624;9.786;2023-05-10T04:38:13;5.50;;;2.13;;
5391;SDS011;2719;53.624;9.786;2023-05-10T04:40:40;14.23;;;1.90;;
5391;SDS011;2719;53.624;9.786;2023-05-10T04:43:06;4.50;;;1.63;;
5391;SDS011;2719;53.624;9.786;2023-05-10T04:45:33;3.10;;;2.80;;
5391;SDS011;2719;53.624;9.786;2023-05-10T04:48:00;4.50;;;2.10;;
5391;SDS011;2719;53.624;9.786;2023-05-10T04:50:26;2.77;;;2.13;;
5391;SDS011;2719;53.624;9.786;2023-05-10T04:52:54;4.30;;;2.03;;
5391;SDS011;2719;53.624;9.786;2023-05-10T04:55:21;4.07;;;2.60;;
5391;SDS011;2719;53.624;9.786;2023-05-10T04:57:48;3.10;;;2.20;;
5391;SDS011;2719;53.624;9.786;2023-05-10T05:00:15;4.50;;;1.90;;
5391;SDS011;2719;53.624;9.786;2023-05-10T05:02:42;4.50;;;1.60;;
5391;SDS011;2719;53.624;9.786;2023-05-10T05:05:10;4.10;;;2.00;;
5391;SDS011;2719;53.624;9.786;2023-05-10T05:07:36;4.53;;;1.67;;
5391;SDS011;2719;53.624;9.786;2023-05-10T05:10:05;2.70;;;2.00;;
5391;SDS011;2719;53.624;9.786;2023-05-10T05:12:32;3.83;;;1.77;;
5391;SDS011;2719;53.624;9.786;2023-05-10T05:14:59;2.50;;;1.50;;
5391;SDS011;2719;53.624;9.786;2023-05-10T05:17:26;4.73;;;2.10;;
5391;SDS011;2719;53.624;9.786;2023-05-10T05:19:53;2.63;;;2.10;;
5391;SDS011;2719;53.624;9.786;2023-05-10T05:22:20;3.67;;;1.77;;
5391;SDS011;2719;53.624;9.786;2023-05-10T05:24:52;10.83;;;2.20;;
5391;SDS011;2719;53.624;9.786;2023-05-10T05:27:20;4.73;;;1.67;;
5391;SDS011;2719;53.624;9.786;2023-05-10T05:29:49;3.20;;;1.83;;
5391;SDS011;2719;53.624;9.786;2023-05-10T05:32:16;3.80;;;1.83;;
5391;SDS011;2719;53.624;9.786;2023-05-10T05:34:43;4.80;;;2.00;;
5391;SDS011;2719;53.624;9.786;2023-05-10T05:37:12;2.80;;;1.53;;
5391;SDS011;2719;53.624;9.786;2023-05-10T05:39:39;2.23;;;1.67;;
5391;SDS011;2719;53.624;9.786;2023-05-10T05:42:06;3.40;;;1.70;;
5391;SDS011;2719;53.624;9.786;2023-05-10T05:44:34;16.13;;;2.67;;
5391;SDS011;2719;53.624;9.786;2023-05-10T05:47:01;1.63;;;1.53;;
5391;SDS011;2719;53.624;9.786;2023-05-10T05:49:28;3.37;;;1.70;;
5391;SDS011;2719;53.624;9.786;2023-05-10T05:51:58;5.77;;;2.03;;
5391;SDS011;2719;53.624;9.786;2023-05-10T05:54:24;8.03;;;1.70;;
5391;SDS011;2719;53.624;9.786;2023-05-10T05:56:53;1.83;;;1.50;;
5391;SDS011;2719;53.624;9.786;2023-05-10T05:59:20;2.07;;;1.97;;
5391;SDS011;2719;53.624;9.786;2023-05-10T06:01:48;3.07;;;1.33;;
5391;SDS011;2719;53.624;9.786;2023-05-10T06:04:15;5.97;;;2.57;;
5391;SDS011;2719;53.624;9.786;2023-05-10T06:06:42;15.43;;;1.83;;
5391;SDS011;2719;53.624;9.786;2023-05-10T06:09:09;5.10;;;2.10;;
5391;SDS011;2719;53.624;9.786;2023-05-10T06:11:36;5.00;;;2.63;;
5391;SDS011;2719;53.624;9.786;2023-05-10T06:14:04;8.00;;;1.83;;
5391;SDS011;2719;53.624;9.786;2023-05-10T06:16:32;1.90;;;1.80;;
5391;SDS011;2719;53.624;9.786;2023-05-10T06:19:00;7.33;;;2.07;;
5391;SDS011;2719;53.624;9.786;2023-05-10T06:21:27;10.37;;;1.93;;
5391;SDS011;2719;53.624;9.786;2023-05-10T06:23:53;4.30;;;2.13;;
5391;SDS011;2719;53.624;9.786;2023-05-10T06:26:20;4.03;;;2.13;;
5391;SDS011;2719;53.624;9.786;2023-05-10T06:28:47;2.00;;;1.07;;
5391;SDS011;2719;53.624;9.786;2023-05-10T06:31:13;4.83;;;2.50;;
5391;SDS011;2719;53.624;9.786;2023-05-10T06:33:41;2.60;;;2.10;;
5391;SDS011;2719;53.624;9.786;2023-05-10T06:36:09;2.97;;;1.83;;
5391;SDS011;2719;53.624;9.786;2023-05-10T06:38:36;2.10;;;1.60;;
5391;SDS011;2719;53.624;9.786;2023-05-10T06:41:02;6.40;;;1.83;;
5391;SDS011;2719;53.624;9.786;2023-05-10T06:43:29;3.90;;;1.80;;
5391;SDS011;2719;53.624;9.786;2023-05-10T06:45:56;2.03;;;1.40;;
5391;SDS011;2719;53.624;9.786;2023-05-10T06:48:22;7.70;;;2.27;;
5391;SDS011;2719;53.624;9.786;2023-05-10T06:50:49;2.73;;;1.93;;
5391;SDS011;2719;53.624;9.786;2023-05-10T06:53:17;10.13;;;2.67;;
5391;SDS011;2719;53.624;9.786;2023-05-10T06:55:44;2.07;;;1.97;;
5391;SDS011;2719;53.624;9.786;2023-05-10T06:58:11;5.23;;;1.77;;
5391;SDS011;2719;53.624;9.786;2023-05-10T07:00:38;4.20;;;2.00;;
5391;SDS011;2719;53.624;9.786;2023-05-10T07:03:05;6.17;;;2.47;;
5391;SDS011;2719;53.624;9.786;2023-05-10T07:05:32;6.67;;;1.90;;
5391;SDS011;2719;53.624;9.786;2023-05-10T07:07:59;2.80;;;2.47;;
5391;SDS011;2719;53.624;9.786;2023-05-10T07:10:27;3.63;;;2.20;;
5391;SDS011;2719;53.624;9.786;2023-05-10T07:12:54;8.43;;;2.40;;
5391;SDS011;2719;53.624;9.786;2023-05-10T07:15:21;4.20;;;2.00;;
5391;SDS011;2719;53.624;9.786;2023-05-10T07:17:48;5.63;;;2.20;;
5391;SDS011;2719;53.624;9.786;2023-05-10T07:20:15;2.20;;;2.00;;
5391;SDS011;2719;53.624;9.786;2023-05-10T07:22:41;7.87;;;2.10;;
5391;SDS011;2719;53.624;9.786;2023-05-10T07:25:08;2.40;;;1.93;;
5391;SDS011;2719;53.624;9.786;2023-05-10T07:27:37;4.57;;;2.03;;
5391;SDS011;2719;53.624;9.786;2023-05-10T07:30:04;13.43;;;2.37;;
5391;SDS011;2719;53.624;9.786;2023-05-10T07:32:31;5.63;;;2.13;;
5391;SDS011;2719;53.624;9.786;2023-05-10T07:34:57;3.03;;;2.33;;
5391;SDS011;2719;53.624;9.786;2023-05-10T07:37:24;2.97;;;2.33;;
5391;SDS011;2719;53.624;9.786;2023-05-10T07:39:51;4.97;;;1.87;;
5391;SDS011;2719;53.624;9.786;2023-05-10T07:42:18;5.67;;;2.13;;
5391;SDS011;2719;53.624;9.786;2023-05-10T07:44:46;2.73;;;2.40;;
5391;SDS011;2719;53.624;9.786;2023-05-10T07:47:13;6.77;;;2.13;;
5391;SDS011;2719;53.624;9.786;2023-05-10T07:49:39;5.00;;;2.03;;
5391;SDS011;2719;53.624;9.786;2023-05-10T07:52:06;5.40;;;1.80;;
5391;SDS011;2719;53.624;9.786;2023-05-10T07:54:33;10.00;;;2.03;;
5391;SDS011;2719;53.624;9.786;2023-05-10T07:56:59;2.90;;;2.60;;
5391;SDS011;2719;53.624;9.786;2023-05-10T07:59:26;4.77;;;1.87;;
5391;SDS011;2719;53.624;9.786;2023-05-10T08:01:54;1.80;;;1.70;;
5391;SDS011;2719;53.624;9.786;2023-05-10T08:04:21;3.63;;;2.20;;
5391;SDS011;2719;53.624;9.786;2023-05-10T08:06:47;2.53;;;2.13;;
5391;SDS011;2719;53.624;9.786;2023-05-10T08:09:14;1.90;;;1.70;;
5391;SDS011;2719;53.624;9.786;2023-05-10T08:11:42;2.10;;;1.90;;
5391;SDS011;2719;53.624;9.786;2023-05-10T08:14:09;4.40;;;3.00;;
5391;SDS011;2719;53.624;9.786;2023-05-10T08:16:36;5.00;;;2.17;;
5391;SDS011;2719;53.624;9.786;2023-05-10T08:19:04;2.27;;;2.07;;
5391;SDS011;2719;53.624;9.786;2023-05-10T08:21:30;4.00;;;2.00;;
5391;SDS011;2719;53.624;9.786;2023-05-10T08:23:57;4.63;;;1.87;;
5391;SDS011;2719;53.624;9.786;2023-05-10T08:26:24;7.00;;;1.90;;
5391;SDS011;2719;53.624;9.786;2023-05-10T08:28:50;5.90;;;2.40;;
5391;SDS011;2719;53.624;9.786;2023-05-10T08:31:17;4.30;;;2.57;;
5391;SDS011;2719;53.624;9.786;2023-05-10T08:33:44;6.63;;;2.70;;
5391;SDS011;2719;53.624;9.786;2023-05-10T08:36:12;2.47;;;2.03;;
5391;SDS011;2719;53.624;9.786;2023-05-10T08:38:44;1.60;;;1.50;;
5391;SDS011;2719;53.624;9.786;2023-05-10T08:41:11;10.07;;;1.97;;
5391;SDS011;2719;53.624;9.786;2023-05-10T08:43:38;3.70;;;2.10;;
5391;SDS011;2719;53.624;9.786;2023-05-10T08:46:06;4.90;;;2.00;;
5391;SDS011;2719;53.624;9.786;2023-05-10T08:48:35;4.70;;;1.93;;
5391;SDS011;2719;53.624;9.786;2023-05-10T08:51:03;3.50;;;2.10;;
5391;SDS011;2719;53.624;9.786;2023-05-10T08:53:33;2.60;;;1.30;;
5391;SDS011;2719;53.624;9.786;2023-05-10T08:56:02;5.03;;;2.37;;
5391;SDS011;2719;53.624;9.786;2023-05-10T08:58:30;4.13;;;2.13;;
5391;SDS011;2719;53.624;9.786;2023-05-10T09:00:57;3.87;;;2.93;;
5391;SDS011;2719;53.624;9.786;2023-05-10T09:03:25;4.30;;;2.50;;
5391;SDS011;2719;53.624;9.786;2023-05-10T09:05:52;8.73;;;2.00;;
5391;SDS011;2719;53.624;9.786;2023-05-10T09:08:20;6.30;;;2.60;;
5391;SDS011;2719;53.624;9.786;2023-05-10T09:10:51;4.33;;;2.00;;
5391;SDS011;2719;53.624;9.786;2023-05-10T09:13:19;2.23;;;1.97;;
5391;SDS011;2719;53.624;9.786;2023-05-10T09:15:47;2.83;;;2.03;;
5391;SDS011;2719;53.624;9.786;2023-05-10T09:18:14;3.93;;;2.30;;
5391;SDS011;2719;53.624;9.786;2023-05-10T09:20:40;8.67;;;2.27;;
5391;SDS011;2719;53.624;9.786;2023-05-10T09:23:07;9.43;;;2.93;;
5391;SDS011;2719;53.624;9.786;2023-05-10T09:25:34;7.60;;;2.90;;
5391;SDS011;2719;53.624;9.786;2023-05-10T09:28:06;5.60;;;3.30;;
5391;SDS011;2719;53.624;9.786;2023-05-10T09:30:34;35.47;;;5.33;;
5391;SDS011;2719;53.624;9.786;2023-05-10T09:33:01;3.80;;;2.50;;
5391;SDS011;2719;53.624;9.786;2023-05-10T09:35:29;5.90;;;3.27;;
5391;SDS011;2719;53.624;9.786;2023-05-10T09:37:57;5.40;;;2.63;;
5391;SDS011;2719;53.624;9.786;2023-05-10T09:40:26;5.03;;;2.80;;
5391;SDS011;2719;53.624;9.786;2023-05-10T09:42:54;5.40;;;3.03;;
5391;SDS011;2719;53.624;9.786;2023-05-10T09:45:24;4.80;;;3.17;;
5391;SDS011;2719;53.624;9.786;2023-05-10T09:47:52;6.47;;;2.53;;
5391;SDS011;2719;53.624;9.786;2023-05-10T09:50:19;3.13;;;2.90;;
5391;SDS011;2719;53.624;9.786;2023-05-10T09:52:47;3.27;;;2.77;;
5391;SDS011;2719;53.624;9.786;2023-05-10T09:55:16;4.97;;;3.10;;
5391;SDS011;2719;53.624;9.786;2023-05-10T09:57:43;4.10;;;3.30;;
5391;SDS011;2719;53.624;9.786;2023-05-10T10:00:11;4.50;;;3.03;;
5391;SDS011;2719;53.624;9.786;2023-05-10T10:02:47;3.17;;;2.87;;
5391;SDS011;2719;53.624;9.786;2023-05-10T10:05:14;5.70;;;3.67;;
5391;SDS011;2719;53.624;9.786;2023-05-10T10:07:41;5.73;;;3.90;;
5391;SDS011;2719;53.624;9.786;2023-05-10T10:10:08;3.70;;;2.83;;
5391;SDS011;2719;53.624;9.786;2023-05-10T10:12:37;5.10;;;3.57;;
5391;SDS011;2719;53.624;9.786;2023-05-10T10:15:05;4.57;;;3.30;;
5391;SDS011;2719;53.624;9.786;2023-05-10T10:17:33;4.80;;;3.37;;
5391;SDS011;2719;53.624;9.786;2023-05-10T10:20:04;7.30;;;3.93;;
5391;SDS011;2719;53.624;9.786;2023-05-10T10:22:32;8.93;;;3.90;;
5391;SDS011;2719;53.624;9.786;2023-05-10T10:24:58;5.03;;;3.73;;
5391;SDS011;2719;53.624;9.786;2023-05-10T10:27:26;3.43;;;3.20;;
5391;SDS011;2719;53.624;9.786;2023-05-10T10:30:02;7.93;;;3.13;;
5391;SDS011;2719;53.624;9.786;2023-05-10T10:32:38;7.37;;;4.50;;
5391;SDS011;2719;53.624;9.786;2023-05-10T10:35:29;4.77;;;3.00;;
5391;SDS011;2719;53.624;9.786;2023-05-10T10:37:56;5.37;;;3.83;;
5391;SDS011;2719;53.624;9.786;2023-05-10T10:40:27;5.13;;;3.67;;
5391;SDS011;2719;53.624;9.786;2023-05-10T10:42:54;5.23;;;4.50;;
5391;SDS011;2719;53.624;9.786;2023-05-10T10:45:22;3.77;;;3.47;;
5391;SDS011;2719;53.624;9.786;2023-05-10T10:47:53;6.90;;;4.37;;
5391;SDS011;2719;53.624;9.786;2023-05-10T10:50:44;13.03;;;4.90;;
5391;SDS011;2719;53.624;9.786;2023-05-10T10:53:11;6.63;;;4.60;;
5391;SDS011;2719;53.624;9.786;2023-05-10T10:55:44;8.37;;;3.57;;
5391;SDS011;2719;53.624;9.786;2023-05-10T10:58:12;5.13;;;4.47;;
5391;SDS011;2719;53.624;9.786;2023-05-10T11:01:08;5.77;;;4.80;;
5391;SDS011;2719;53.624;9.786;2023-05-10T11:03:37;6.03;;;3.67;;
5391;SDS011;2719;53.624;9.786;2023-05-10T11:06:05;5.97;;;4.10;;
5391;SDS011;2719;53.624;9.786;2023-05-10T11:08:33;9.47;;;4.17;;
5391;SDS011;2719;53.624;9.786;2023-05-10T11:11:07;5.50;;;4.13;;
5391;SDS011;2719;53.624;9.786;2023-05-10T11:13:34;7.80;;;4.70;;
5391;SDS011;2719;53.624;9.786;2023-05-10T11:18:51;8.30;;;4.80;;
5391;SDS011;2719;53.624;9.786;2023-05-10T11:21:30;5.47;;;4.73;;
5391;SDS011;2719;53.624;9.786;2023-05-10T11:23:57;7.23;;;4.30;;
5391;SDS011;2719;53.624;9.786;2023-05-10T11:26:25;6.17;;;4.03;;
5391;SDS011;2719;53.624;9.786;2023-05-10T11:28:56;8.27;;;4.00;;
5391;SDS011;2719;53.624;9.786;2023-05-10T11:31:25;5.03;;;4.47;;
5391;SDS011;2719;53.624;9.786;2023-05-10T11:33:53;6.30;;;4.83;;
5391;SDS011;2719;53.624;9.786;2023-05-10T11:36:21;12.20;;;4.77;;
5391;SDS011;2719;53.624;9.786;2023-05-10T11:38:51;6.70;;;3.83;;
5391;SDS011;2719;53.624;9.786;2023-05-10T11:41:19;8.50;;;4.60;;
5391;SDS011;2719;53.624;9.786;2023-05-10T11:43:47;8.67;;;4.90;;
5391;SDS011;2719;53.624;9.786;2023-05-10T11:46:16;6.73;;;4.80;;
5391;SDS011;2719;53.624;9.786;2023-05-10T11:48:45;4.47;;;3.87;;
5391;SDS011;2719;53.624;9.786;2023-05-10T11:51:19;5.13;;;4.27;;
5391;SDS011;2719;53.624;9.786;2023-05-10T11:53:46;13.20;;;5.17;;
5391;SDS011;2719;53.624;9.786;2023-05-10T11:56:14;4.83;;;3.90;;
5391;SDS011;2719;53.624;9.786;2023-05-10T11:58:41;6.83;;;4.03;;
5391;SDS011;2719;53.624;9.786;2023-05-10T12:01:08;6.00;;;4.20;;
5391;SDS011;2719;53.624;9.786;2023-05-10T12:03:35;4.93;;;3.17;;
5391;SDS011;2719;53.624;9.786;2023-05-10T12:06:03;7.07;;;3.87;;
5391;SDS011;2719;53.624;9.786;2023-05-10T12:08:30;5.47;;;3.93;;
5391;SDS011;2719;53.624;9.786;2023-05-10T12:11:04;5.97;;;3.73;;
5391;SDS011;2719;53.624;9.786;2023-05-10T12:13:34;7.50;;;4.23;;
5391;SDS011;2719;53.624;9.786;2023-05-10T12:16:12;9.37;;;2.83;;
5391;SDS011;2719;53.624;9.786;2023-05-10T12:18:40;7.10;;;3.67;;
5391;SDS011;2719;53.624;9.786;2023-05-10T12:21:07;4.40;;;3.80;;
5391;SDS011;2719;53.624;9.786;2023-05-10T12:23:42;3.63;;;3.33;;
5391;SDS011;2719;53.624;9.786;2023-05-10T12:26:11;3.53;;;2.97;;
5391;SDS011;2719;53.624;9.786;2023-05-10T12:28:39;4.33;;;3.40;;
5391;SDS011;2719;53.624;9.786;2023-05-10T12:31:06;8.43;;;4.40;;
5391;SDS011;2719;53.624;9.786;2023-05-10T12:33:36;4.17;;;3.37;;
5391;SDS011;2719;53.624;9.786;2023-05-10T12:36:06;4.30;;;3.30;;
5391;SDS011;2719;53.624;9.786;2023-05-10T12:38:34;3.40;;;2.90;;
5391;SDS011;2719;53.624;9.786;2023-05-10T12:41:04;4.63;;;2.90;;
5391;SDS011;2719;53.624;9.786;2023-05-10T12:43:32;5.60;;;2.63;;
5391;SDS011;2719;53.624;9.786;2023-05-10T12:46:05;4.50;;;3.00;;
5391;SDS011;2719;53.624;9.786;2023-05-10T12:48:32;3.13;;;2.63;;
5391;SDS011;2719;53.624;9.786;2023-05-10T12:51:00;2.80;;;2.60;;
5391;SDS011;2719;53.624;9.786;2023-05-10T12:53:27;3.00;;;2.60;;
5391;SDS011;2719;53.624;9.786;2023-05-10T12:55:54;4.93;;;2.80;;
5391;SDS011;2719;53.624;9.786;2023-05-10T12:58:21;2.60;;;2.27;;
5391;SDS011;2719;53.624;9.786;2023-05-10T13:00:47;2.73;;;2.40;;
5391;SDS011;2719;53.624;9.786;2023-05-10T13:03:16;3.37;;;3.07;;
5391;SDS011;2719;53.624;9.786;2023-05-10T13:05:43;3.27;;;2.97;;
5391;SDS011;2719;53.624;9.786;2023-05-10T13:08:10;4.40;;;2.90;;
5391;SDS011;2719;53.624;9.786;2023-05-10T13:10:36;3.43;;;2.70;;
5391;SDS011;2719;53.624;9.786;2023-05-10T13:13:03;4.33;;;3.80;;
5391;SDS011;2719;53.624;9.786;2023-05-10T13:15:30;3.10;;;2.80;;
5391;SDS011;2719;53.624;9.786;2023-05-10T13:17:57;5.00;;;3.90;;
5391;SDS011;2719;53.624;9.786;2023-05-10T13:20:24;5.43;;;4.13;;
5391;SDS011;2719;53.624;9.786;2023-05-10T13:22:52;6.07;;;2.97;;
5391;SDS011;2719;53.624;9.786;2023-05-10T13:25:19;4.43;;;3.40;;
5391;SDS011;2719;53.624;9.786;2023-05-10T13:27:46;3.20;;;2.90;;
5391;SDS011;2719;53.624;9.786;2023-05-10T13:30:13;4.00;;;3.60;;
5391;SDS011;2719;53.624;9.786;2023-05-10T13:32:39;4.43;;;3.37;;
5391;SDS011;2719;53.624;9.786;2023-05-10T13:35:07;3.73;;;3.10;;
5391;SDS011;2719;53.624;9.786;2023-05-10T13:37:35;3.93;;;3.10;;
5391;SDS011;2719;53.624;9.786;2023-05-10T13:40:02;4.17;;;3.10;;
5391;SDS011;2719;53.624;9.786;2023-05-10T13:42:30;3.63;;;3.10;;
5391;SDS011;2719;53.624;9.786;2023-05-10T13:44:58;4.70;;;3.20;;
5391;SDS011;2719;53.624;9.786;2023-05-10T13:47:25;3.83;;;3.50;;
5391;SDS011;2719;53.624;9.786;2023-05-10T13:49:52;3.53;;;3.10;;
5391;SDS011;2719;53.624;9.786;2023-05-10T13:52:18;4.13;;;3.53;;
5391;SDS011;2719;53.624;9.786;2023-05-10T13:54:46;3.20;;;2.90;;
5391;SDS011;2719;53.624;9.786;2023-05-10T13:57:13;4.23;;;3.67;;
5391;SDS011;2719;53.624;9.786;2023-05-10T13:59:41;4.07;;;3.33;;
5391;SDS011;2719;53.624;9.786;2023-05-10T14:02:08;5.07;;;3.30;;
5391;SDS011;2719;53.624;9.786;2023-05-10T14:04:35;6.13;;;4.10;;
5391;SDS011;2719;53.624;9.786;2023-05-10T14:07:02;4.27;;;2.80;;
5391;SDS011;2719;53.624;9.786;2023-05-10T14:09:29;4.70;;;3.43;;
5391;SDS011;2719;53.624;9.786;2023-05-10T14:11:57;4.30;;;3.57;;
5391;SDS011;2719;53.624;9.786;2023-05-10T14:14:24;5.10;;;4.30;;
5391;SDS011;2719;53.624;9.786;2023-05-10T14:16:51;3.70;;;3.10;;
5391;SDS011;2719;53.624;9.786;2023-05-10T14:19:17;4.13;;;3.13;;
5391;SDS011;2719;53.624;9.786;2023-05-10T14:21:44;4.77;;;3.83;;
5391;SDS011;2719;53.624;9.786;2023-05-10T14:24:11;5.00;;;4.47;;
5391;SDS011;2719;53.624;9.786;2023-05-10T14:26:37;3.83;;;3.47;;
5391;SDS011;2719;53.624;9.786;2023-05-10T14:29:05;3.40;;;3.10;;
5391;SDS011;2719;53.624;9.786;2023-05-10T14:31:32;5.50;;;4.20;;
5391;SDS011;2719;53.624;9.786;2023-05-10T14:33:59;5.53;;;3.97;;
5391;SDS011;2719;53.624;9.786;2023-05-10T14:36:25;4.33;;;3.50;;
5391;SDS011;2719;53.624;9.786;2023-05-10T14:38:52;9.00;;;4.13;;
5391;SDS011;2719;53.624;9.786;2023-05-10T14:41:19;4.13;;;3.10;;
5391;SDS011;2719;53.624;9.786;2023-05-10T14:43:45;3.13;;;2.93;;
5391;SDS011;2719;53.624;9.786;2023-05-10T14:46:13;5.10;;;4.00;;
5391;SDS011;2719;53.624;9.786;2023-05-10T14:48:41;3.03;;;2.73;;
5391;SDS011;2719;53.624;9.786;2023-05-10T14:51:07;3.47;;;3.10;;
5391;SDS011;2719;53.624;9.786;2023-05-10T14:53:34;25.80;;;3.83;;
5391;SDS011;2719;53.624;9.786;2023-05-10T14:56:01;5.67;;;3.90;;
5391;SDS011;2719;53.624;9.786;2023-05-10T14:58:28;3.07;;;2.77;;
5391;SDS011;2719;53.624;9.786;2023-05-10T15:00:55;3.83;;;3.17;;
5391;SDS011;2719;53.624;9.786;2023-05-10T15:03:23;8.03;;;3.37;;
5391;SDS011;2719;53.624;9.786;2023-05-10T15:05:50;3.07;;;2.87;;
5391;SDS011;2719;53.624;9.786;2023-05-10T15:08:17;3.53;;;3.23;;
5391;SDS011;2719;53.624;9.786;2023-05-10T15:10:43;4.30;;;2.43;;
5391;SDS011;2719;53.624;9.786;2023-05-10T15:13:10;8.43;;;3.20;;
5391;SDS011;2719;53.624;9.786;2023-05-10T15:15:37;3.30;;;3.00;;
5391;SDS011;2719;53.624;9.786;2023-05-10T15:18:03;3.67;;;2.90;;
5391;SDS011;2719;53.624;9.786;2023-05-10T15:23:00;2.53;;;2.33;;
5391;SDS011;2719;53.624;9.786;2023-05-10T15:25:26;5.37;;;3.63;;
5391;SDS011;2719;53.624;9.786;2023-05-10T15:27:53;3.50;;;3.20;;
5391;SDS011;2719;53.624;9.786;2023-05-10T15:30:20;2.83;;;2.50;;